createdAt,value
2022-11-04T00:03:55.378Z,56.43
2022-11-04T00:08:58.316Z,58.30
2022-11-04T00:13:59.903Z,57.07
2022-11-04T00:19:01.806Z,57.07
2022-11-04T00:24:22.628Z,56.81
2022-11-04T00:29:24.293Z,57.25
2022-11-04T00:34:25.876Z,58.11
2022-11-04T00:39:27.520Z,58.28
2022-11-04T00:44:29.106Z,57.98
2022-11-04T00:49:31.287Z,58.67
2022-11-04T00:54:32.836Z,58.30
2022-11-04T00:59:34.511Z,58.24
2022-11-04T01:04:36.155Z,58.81
2022-11-04T01:09:37.838Z,58.91
2022-11-04T01:14:39.457Z,57.87
2022-11-04T01:19:41.085Z,57.18
2022-11-04T01:24:42.636Z,58.61
2022-11-04T01:29:44.241Z,56.25
2022-11-04T01:34:46.446Z,54.33
2022-11-04T01:39:48.115Z,54.41
2022-11-04T01:44:53.285Z,55.96
2022-11-04T01:50:06.899Z,56.08
2022-11-04T01:55:16.208Z,58.30
2022-11-04T02:00:18.590Z,57.38
2022-11-04T02:05:20.804Z,55.59
2022-11-04T02:10:25.553Z,56.37
2022-11-04T02:15:55.791Z,57.71
2022-11-04T02:21:21.772Z,58.35
2022-11-04T02:32:33.513Z,56.62
2022-11-04T02:37:56.397Z,56.87
2022-11-04T02:43:21.082Z,58.12
2022-11-04T02:48:31.708Z,58.13
2022-11-04T02:53:42.021Z,56.33
2022-11-04T02:59:07.621Z,57.84
2022-11-04T03:04:26.269Z,57.10
2022-11-04T03:09:30.473Z,57.89
2022-11-04T03:14:49.476Z,55.86
2022-11-04T03:19:56.422Z,56.89
2022-11-04T03:24:58.291Z,54.35
2022-11-04T03:30:09.353Z,56.39
2022-11-04T03:35:13.971Z,54.40
2022-11-04T03:40:18.338Z,57.02
2022-11-04T03:45:19.948Z,51.92
2022-11-04T03:50:21.562Z,56.44
2022-11-04T03:56:01.548Z,55.62
2022-11-04T04:01:18.454Z,56.38
2022-11-04T04:06:28.419Z,54.06
2022-11-04T04:11:44.768Z,53.66
2022-11-04T04:16:48.743Z,54.19
2022-11-04T04:21:59.014Z,54.13
2022-11-04T04:27:20.636Z,53.59
2022-11-04T04:32:26.379Z,53.46
2022-11-04T04:37:28.462Z,53.41
2022-11-04T04:42:56.010Z,53.65
2022-11-04T04:47:57.866Z,54.55
2022-11-04T04:53:00.779Z,54.49
2022-11-04T04:58:02.381Z,53.76
2022-11-04T05:03:04.145Z,54.88
2022-11-04T05:08:07.184Z,54.69
2022-11-04T05:13:30.012Z,56.05
2022-11-04T05:18:31.844Z,56.01
2022-11-04T05:23:34.885Z,56.60
2022-11-04T05:28:36.703Z,55.92
2022-11-04T05:33:38.420Z,54.03
2022-11-04T05:38:40.559Z,55.05
2022-11-04T05:43:42.152Z,55.91
2022-11-04T05:48:43.749Z,56.02
2022-11-04T05:53:45.915Z,54.79
2022-11-04T05:58:47.512Z,54.90
2022-11-04T06:03:49.090Z,56.49
2022-11-04T06:08:51.351Z,55.03
2022-11-04T06:13:55.051Z,55.84
2022-11-04T06:19:01.392Z,55.04
2022-11-04T06:24:08.145Z,56.81
2022-11-04T06:29:09.954Z,56.03
2022-11-04T06:34:11.580Z,56.14
2022-11-04T06:39:13.162Z,55.13
2022-11-04T06:44:14.915Z,56.72
2022-11-04T06:49:20.090Z,53.17
2022-11-04T06:54:21.703Z,55.17
2022-11-04T06:59:24.090Z,55.53
2022-11-04T07:04:25.727Z,56.52
2022-11-04T07:09:27.395Z,59.11
2022-11-04T07:14:29.078Z,57.73
2022-11-04T07:19:30.664Z,56.52
2022-11-04T07:24:33.182Z,58.55
2022-11-04T07:29:34.879Z,59.40
2022-11-04T07:34:36.494Z,58.10
2022-11-04T07:39:38.099Z,56.16
2022-11-04T07:44:39.694Z,56.65
2022-11-04T07:49:41.305Z,57.07
2022-11-04T07:54:42.931Z,56.22
2022-11-04T07:59:44.529Z,56.16
2022-11-04T08:04:46.182Z,55.21
2022-11-04T08:09:47.772Z,55.43
2022-11-04T08:14:49.384Z,57.27
2022-11-04T08:19:51.032Z,57.10
2022-11-04T08:24:52.645Z,54.09
2022-11-04T08:29:54.228Z,54.14
2022-11-04T08:34:56.418Z,53.24
2022-11-04T08:39:58.006Z,54.05
2022-11-04T08:44:59.738Z,53.86
2022-11-04T08:50:01.337Z,53.49
2022-11-04T08:55:03.150Z,51.88
2022-11-04T09:00:05.263Z,53.00
2022-11-04T09:05:07.182Z,54.10
2022-11-04T09:10:10.346Z,52.13
2022-11-04T09:15:12.547Z,52.10
2022-11-04T09:20:14.196Z,51.87
2022-11-04T09:25:15.869Z,52.36
2022-11-04T09:30:17.564Z,52.97
2022-11-04T09:35:19.512Z,53.15
2022-11-04T09:40:24.464Z,54.23
2022-11-04T09:45:31.520Z,52.25
2022-11-04T09:50:50.957Z,51.68
2022-11-04T09:56:10.930Z,52.56
2022-11-04T10:01:21.948Z,50.87
2022-11-04T10:07:02.658Z,50.94
2022-11-04T10:12:25.619Z,51.74
2022-11-04T10:18:06.404Z,50.35
2022-11-04T10:23:28.189Z,50.77
2022-11-04T10:28:36.221Z,51.78
2022-11-04T10:33:42.931Z,52.77
2022-11-04T10:38:52.012Z,50.06
2022-11-04T10:44:05.594Z,49.95
2022-11-04T10:49:28.591Z,49.87
2022-11-04T10:54:33.575Z,49.81
2022-11-04T10:59:55.027Z,49.48
2022-11-04T11:06:19.799Z,55.50
2022-11-04T11:11:45.352Z,54.07
2022-11-04T11:16:48.218Z,53.20
2022-11-04T11:21:52.813Z,53.60
2022-11-04T11:27:00.903Z,52.13
2022-11-04T11:32:02.514Z,52.32
2022-11-04T11:37:05.288Z,52.32
2022-11-04T11:42:19.089Z,50.61
2022-11-04T11:47:22.362Z,49.44
2022-11-04T11:52:29.948Z,50.06
2022-11-04T12:09:16.661Z,50.73
2022-11-04T12:14:33.339Z,50.51
2022-11-04T12:19:55.471Z,50.70
2022-11-04T12:25:27.086Z,49.95
2022-11-04T12:30:38.181Z,49.85
2022-11-04T12:36:00.827Z,49.89
2022-11-04T12:41:34.226Z,51.27
2022-11-04T12:46:37.543Z,51.49
2022-11-04T12:51:45.252Z,50.11
2022-11-04T12:56:56.708Z,49.48
2022-11-04T13:02:07.431Z,48.47
2022-11-04T13:07:15.863Z,48.24
2022-11-04T13:12:21.352Z,50.02
2022-11-04T13:17:43.776Z,49.47
2022-11-04T13:22:48.635Z,48.42
2022-11-04T13:27:51.321Z,48.16
2022-11-04T13:33:09.046Z,47.57
2022-11-04T13:38:18.611Z,47.23
2022-11-04T13:43:38.326Z,49.71
2022-11-04T13:48:58.485Z,54.84
2022-11-04T13:54:00.157Z,54.40
2022-11-04T13:59:07.580Z,52.81
2022-11-04T14:04:31.041Z,51.89
2022-11-04T14:09:50.543Z,52.40
2022-11-04T14:15:04.056Z,49.60
2022-11-04T14:20:06.432Z,49.52
2022-11-04T14:25:29.350Z,48.26
2022-11-04T14:30:44.051Z,48.23
2022-11-04T14:35:46.842Z,48.59
2022-11-04T14:41:12.324Z,50.89
2022-11-04T14:46:20.947Z,48.80
2022-11-04T14:51:28.004Z,47.67
2022-11-04T14:56:29.729Z,47.51
2022-11-04T15:01:35.540Z,47.33
2022-11-04T15:07:01.624Z,47.33
2022-11-04T15:12:33.434Z,49.27
2022-11-04T15:17:35.194Z,48.09
2022-11-04T15:22:37.020Z,48.16
2022-11-04T15:27:40.834Z,47.77
2022-11-04T15:32:53.494Z,48.83
2022-11-04T15:37:56.869Z,46.42
2022-11-04T15:43:00.214Z,46.29
2022-11-04T15:48:23.409Z,49.68
2022-11-04T15:53:25.046Z,49.64
2022-11-04T15:58:27.822Z,49.05
2022-11-04T16:03:29.481Z,48.99
2022-11-04T16:08:32.236Z,48.58
2022-11-04T16:13:33.884Z,47.29
2022-11-04T16:18:36.898Z,50.62
2022-11-04T16:23:54.550Z,51.41
2022-11-04T16:28:59.321Z,48.58
2022-11-04T16:34:01.625Z,49.39
2022-11-04T16:39:08.578Z,49.16
2022-11-04T16:44:20.595Z,48.99
2022-11-04T16:49:22.508Z,50.31
2022-11-04T16:54:24.766Z,49.48
2022-11-04T16:59:26.357Z,51.25
2022-11-04T17:04:27.967Z,48.08
2022-11-04T17:09:29.573Z,47.28
2022-11-04T17:14:31.203Z,48.42
2022-11-04T17:19:34.806Z,49.08
2022-11-04T17:24:37.568Z,48.25
2022-11-04T17:29:39.421Z,47.38
2022-11-04T17:34:41.112Z,47.99
2022-11-04T17:39:42.733Z,47.93
2022-11-04T17:44:44.324Z,48.89
2022-11-04T17:49:45.923Z,46.46
2022-11-04T17:54:47.543Z,47.38
2022-11-04T17:59:49.216Z,49.64
2022-11-04T18:04:50.931Z,49.93
2022-11-04T18:09:52.549Z,51.59
2022-11-04T18:14:54.238Z,51.64
2022-11-04T18:19:56.163Z,51.75
2022-11-04T18:24:57.980Z,52.29
2022-11-04T18:29:59.640Z,52.50
2022-11-04T18:35:01.311Z,52.50
2022-11-04T18:40:03.040Z,52.68
2022-11-04T18:45:05.106Z,50.83
2022-11-04T18:50:07.165Z,51.65
2022-11-04T18:55:09.383Z,50.57
2022-11-04T19:00:17.110Z,50.80
2022-11-04T19:05:19.188Z,47.92
2022-11-04T19:10:22.927Z,49.37
2022-11-04T19:15:25.299Z,49.96
2022-11-04T19:20:27.262Z,47.82
2022-11-04T19:25:29.334Z,50.92
2022-11-04T19:30:31.536Z,56.58
2022-11-04T19:35:33.199Z,54.33
2022-11-04T19:40:34.967Z,53.40
2022-11-04T19:45:41.852Z,53.15
2022-11-04T19:50:49.072Z,55.51
2022-11-04T19:55:54.306Z,53.11
2022-11-04T20:00:56.050Z,54.47
2022-11-04T20:05:57.845Z,55.01
2022-11-04T20:11:03.253Z,56.28
2022-11-04T20:16:15.003Z,55.19
2022-11-04T20:21:18.664Z,53.71
2022-11-04T20:26:24.409Z,51.92
2022-11-04T20:31:28.942Z,53.42
2022-11-04T20:36:30.988Z,53.86
2022-11-04T20:41:33.549Z,58.39
2022-11-04T20:46:35.603Z,56.47
2022-11-04T20:51:48.804Z,57.33
2022-11-04T20:56:53.455Z,57.20
2022-11-04T21:01:55.264Z,55.01
2022-11-04T21:06:57.009Z,52.90
2022-11-04T21:11:58.636Z,57.02
2022-11-04T21:17:01.730Z,56.05
2022-11-04T21:22:03.343Z,55.26
2022-11-04T21:27:04.973Z,56.85
2022-11-04T21:32:06.735Z,57.60
2022-11-04T21:37:08.369Z,57.41
2022-11-04T21:42:09.970Z,54.79
2022-11-04T21:47:11.754Z,54.80
2022-11-04T21:52:13.336Z,54.19
2022-11-04T21:57:14.976Z,58.92
2022-11-04T22:02:16.674Z,55.91
2022-11-04T22:07:38.319Z,57.06
2022-11-04T22:12:39.943Z,56.86
2022-11-04T22:17:41.559Z,55.58
2022-11-04T22:22:43.173Z,55.46
2022-11-04T22:27:44.812Z,53.30
2022-11-04T22:32:46.718Z,54.70
2022-11-04T22:37:48.438Z,55.43
2022-11-04T22:42:51.543Z,53.12
2022-11-04T22:47:53.236Z,56.11
2022-11-04T22:52:54.872Z,54.99
2022-11-04T22:57:57.538Z,55.02
2022-11-04T23:02:59.349Z,55.65
2022-11-04T23:08:01.721Z,56.00
2022-11-04T23:13:22.282Z,54.98
2022-11-04T23:18:42.440Z,54.61
2022-11-04T23:24:03.046Z,56.88
2022-11-04T23:29:23.027Z,57.70
2022-11-04T23:34:43.211Z,56.28
2022-11-04T23:39:46.745Z,56.23
2022-11-04T23:45:14.592Z,56.72
2022-11-04T23:50:35.450Z,55.47
2022-11-04T23:55:55.623Z,54.29
